Skip Navigation LinksHome page > Weather > Current weather Skip Navigation Links

Current Weather

Ndjamena, Chad

For information only: do not use for flight planning or navigation.
Latest weather
Observation time Wednesday, February 22, 2017 9:00 AM WAT
Local time Wednesday, February 22, 2017 9:24 AM WAT
Flight conditions Instrument Meteorological Conditions
Winds
Wind direction East (80°)
Wind speed 18 mph
Visibility 1.9 mi.
Present weather dust
Sky condition
Ceiling unlimited
Temperature 79°F
Dewpoint 34°F
Altimeter 29.97 in.Hg
Derived measurements
Relative humidity 20%
Heat index 79°F
Density altitude 1611 ft.
Remarks
No significant changes expected in the next two hours.
METAR FTTJ 220800Z 08016KT 3000 DU NSC 26/01 Q1015 NOSIG

Settings

Location code

InnerDrive.Weather 4.0.6144.1 Release CLR 4.0.30319.34209
Copyright ©2015 Inner Drive Technology. All rights reserved. Portions Copyright ©1986-2015 David Braverman.

Find weather

Site navigation


Skip Navigation Links

Place info

Page info

PayPal - The safer, easier way to pay online!

Return home.

Copyright ©2017 Inner Drive Technology. Purveyors of fine, hand-crafted computer software. Page printed 2017-02-22T08:24:00 UTC.